sensor_id;sensor_type;location;lat;lon;timestamp;pressure;altitude;pressure_sealevel;temperature;humidity
45275;BME280;31019;43.780;25.948;2023-04-04T00:00:35;100314.38;;;7.25;100.00
45275;BME280;31019;43.780;25.948;2023-04-04T00:03:02;100306.38;;;7.11;100.00
45275;BME280;31019;43.780;25.948;2023-04-04T00:05:29;100292.78;;;8.04;100.00
45275;BME280;31019;43.780;25.948;2023-04-04T00:07:59;100300.97;;;6.92;100.00
45275;BME280;31019;43.780;25.948;2023-04-04T00:10:26;100302.06;;;7.80;100.00
45275;BME280;31019;43.780;25.948;2023-04-04T00:12:53;100292.38;;;6.61;100.00
45275;BME280;31019;43.780;25.948;2023-04-04T00:15:20;100286.91;;;6.84;100.00
45275;BME280;31019;43.780;25.948;2023-04-04T00:17:46;100277.69;;;7.43;100.00
45275;BME280;31019;43.780;25.948;2023-04-04T00:20:13;100263.25;;;7.32;100.00
45275;BME280;31019;43.780;25.948;2023-04-04T00:22:40;100260.00;;;7.37;100.00
45275;BME280;31019;43.780;25.948;2023-04-04T00:25:09;100257.78;;;7.47;100.00
45275;BME280;31019;43.780;25.948;2023-04-04T00:27:36;100264.72;;;8.16;100.00
45275;BME280;31019;43.780;25.948;2023-04-04T00:30:03;100260.28;;;7.55;100.00
45275;BME280;31019;43.780;25.948;2023-04-04T00:32:30;100266.97;;;6.82;100.00
45275;BME280;31019;43.780;25.948;2023-04-04T00:34:57;100270.38;;;6.48;100.00
45275;BME280;31019;43.780;25.948;2023-04-04T00:37:24;100253.28;;;6.72;100.00
45275;BME280;31019;43.780;25.948;2023-04-04T00:39:52;100246.34;;;7.75;100.00
45275;BME280;31019;43.780;25.948;2023-04-04T00:42:20;100249.69;;;8.30;100.00
45275;BME280;31019;43.780;25.948;2023-04-04T00:44:47;100250.13;;;8.87;100.00
45275;BME280;31019;43.780;25.948;2023-04-04T00:47:13;100248.16;;;7.26;100.00
45275;BME280;31019;43.780;25.948;2023-04-04T00:49:40;100256.94;;;6.71;100.00
45275;BME280;31019;43.780;25.948;2023-04-04T00:52:07;100257.63;;;6.79;100.00
45275;BME280;31019;43.780;25.948;2023-04-04T00:54:35;100251.88;;;7.87;100.00
45275;BME280;31019;43.780;25.948;2023-04-04T00:57:02;100257.63;;;6.79;100.00
45275;BME280;31019;43.780;25.948;2023-04-04T00:59:31;100259.63;;;7.05;100.00
45275;BME280;31019;43.780;25.948;2023-04-04T01:01:58;100255.13;;;6.99;100.00
45275;BME280;31019;43.780;25.948;2023-04-04T01:04:25;100252.84;;;6.68;100.00
45275;BME280;31019;43.780;25.948;2023-04-04T01:06:53;100264.81;;;6.64;100.00
45275;BME280;31019;43.780;25.948;2023-04-04T01:09:21;100266.75;;;8.08;100.00
45275;BME280;31019;43.780;25.948;2023-04-04T01:11:48;100264.59;;;7.22;100.00
45275;BME280;31019;43.780;25.948;2023-04-04T01:14:15;100267.34;;;7.07;100.00
45275;BME280;31019;43.780;25.948;2023-04-04T01:16:44;100264.41;;;6.95;100.00
45275;BME280;31019;43.780;25.948;2023-04-04T01:19:16;100263.25;;;7.32;100.00
45275;BME280;31019;43.780;25.948;2023-04-04T01:21:46;100263.66;;;6.73;100.00
45275;BME280;31019;43.780;25.948;2023-04-04T01:24:15;100243.63;;;7.62;100.00
45275;BME280;31019;43.780;25.948;2023-04-04T01:26:44;100240.16;;;8.29;100.00
45275;BME280;31019;43.780;25.948;2023-04-04T01:29:11;100248.78;;;7.83;100.00
45275;BME280;31019;43.780;25.948;2023-04-04T01:31:39;100245.66;;;6.83;100.00
45275;BME280;31019;43.780;25.948;2023-04-04T01:34:18;100238.94;;;7.16;100.00
45275;BME280;31019;43.780;25.948;2023-04-04T01:36:51;100242.72;;;7.41;100.00
45275;BME280;31019;43.780;25.948;2023-04-04T01:39:26;100242.66;;;7.21;100.00
45275;BME280;31019;43.780;25.948;2023-04-04T01:41:58;100243.16;;;8.13;100.00
45275;BME280;31019;43.780;25.948;2023-04-04T01:44:26;100242.13;;;8.07;100.00
45275;BME280;31019;43.780;25.948;2023-04-04T01:46:53;100241.72;;;7.36;100.00
45275;BME280;31019;43.780;25.948;2023-04-04T01:49:20;100238.56;;;6.56;100.00
45275;BME280;31019;43.780;25.948;2023-04-04T01:51:48;100223.75;;;6.89;100.00
45275;BME280;31019;43.780;25.948;2023-04-04T01:54:15;100220.16;;;7.93;100.00
45275;BME280;31019;43.780;25.948;2023-04-04T01:56:43;100217.47;;;6.34;100.00
45275;BME280;31019;43.780;25.948;2023-04-04T01:59:11;100227.06;;;7.94;100.00
45275;BME280;31019;43.780;25.948;2023-04-04T02:01:38;100224.94;;;7.56;100.00
45275;BME280;31019;43.780;25.948;2023-04-04T02:04:05;100234.75;;;7.83;100.00
45275;BME280;31019;43.780;25.948;2023-04-04T02:06:32;100238.41;;;6.36;100.00
45275;BME280;31019;43.780;25.948;2023-04-04T02:08:59;100237.81;;;6.40;100.00
45275;BME280;31019;43.780;25.948;2023-04-04T02:11:26;100237.53;;;7.20;100.00
45275;BME280;31019;43.780;25.948;2023-04-04T02:13:53;100240.78;;;5.73;100.00
45275;BME280;31019;43.780;25.948;2023-04-04T02:16:21;100243.31;;;5.81;100.00
45275;BME280;31019;43.780;25.948;2023-04-04T02:18:47;100232.28;;;6.35;100.00
45275;BME280;31019;43.780;25.948;2023-04-04T02:21:14;100229.00;;;6.83;100.00
45275;BME280;31019;43.780;25.948;2023-04-04T02:23:41;100235.84;;;5.85;100.00
45275;BME280;31019;43.780;25.948;2023-04-04T02:26:07;100239.31;;;8.15;100.00
45275;BME280;31019;43.780;25.948;2023-04-04T02:28:34;100246.91;;;6.38;100.00
45275;BME280;31019;43.780;25.948;2023-04-04T02:31:01;100210.44;;;5.99;100.00
45275;BME280;31019;43.780;25.948;2023-04-04T02:33:30;100224.22;;;5.79;100.00
45275;BME280;31019;43.780;25.948;2023-04-04T02:35:57;100204.47;;;7.92;100.00
45275;BME280;31019;43.780;25.948;2023-04-04T02:38:23;100217.41;;;6.49;100.00
45275;BME280;31019;43.780;25.948;2023-04-04T02:40:50;100212.56;;;5.52;100.00
45275;BME280;31019;43.780;25.948;2023-04-04T02:43:17;100218.97;;;5.13;100.00
45275;BME280;31019;43.780;25.948;2023-04-04T02:45:46;100210.53;;;6.55;100.00
45275;BME280;31019;43.780;25.948;2023-04-04T02:48:12;100225.16;;;5.71;100.00
45275;BME280;31019;43.780;25.948;2023-04-04T02:50:41;100203.81;;;5.30;100.00
45275;BME280;31019;43.780;25.948;2023-04-04T02:53:08;100198.91;;;7.12;100.00
45275;BME280;31019;43.780;25.948;2023-04-04T02:55:34;100198.28;;;6.19;100.00
45275;BME280;31019;43.780;25.948;2023-04-04T02:58:01;100186.50;;;7.61;100.00
45275;BME280;31019;43.780;25.948;2023-04-04T03:00:28;100198.84;;;8.41;100.00
45275;BME280;31019;43.780;25.948;2023-04-04T03:02:55;100198.00;;;6.35;100.00
45275;BME280;31019;43.780;25.948;2023-04-04T03:05:22;100194.91;;;6.81;100.00
45275;BME280;31019;43.780;25.948;2023-04-04T03:07:53;100224.53;;;5.18;100.00
45275;BME280;31019;43.780;25.948;2023-04-04T03:10:21;100232.78;;;5.81;100.00
45275;BME280;31019;43.780;25.948;2023-04-04T03:12:48;100231.56;;;6.70;100.00
45275;BME280;31019;43.780;25.948;2023-04-04T03:15:15;100211.72;;;5.66;100.00
45275;BME280;31019;43.780;25.948;2023-04-04T03:17:41;100222.53;;;5.05;100.00
45275;BME280;31019;43.780;25.948;2023-04-04T03:20:10;100220.91;;;5.92;100.00
45275;BME280;31019;43.780;25.948;2023-04-04T03:22:37;100230.09;;;5.96;100.00
45275;BME280;31019;43.780;25.948;2023-04-04T03:25:06;100225.09;;;7.48;100.00
45275;BME280;31019;43.780;25.948;2023-04-04T03:27:33;100248.34;;;7.25;100.00
45275;BME280;31019;43.780;25.948;2023-04-04T03:30:00;100241.09;;;6.21;100.00
45275;BME280;31019;43.780;25.948;2023-04-04T03:32:27;100240.59;;;6.54;100.00
45275;BME280;31019;43.780;25.948;2023-04-04T03:34:53;100254.78;;;5.73;100.00
45275;BME280;31019;43.780;25.948;2023-04-04T03:37:20;100270.16;;;6.49;100.00
45275;BME280;31019;43.780;25.948;2023-04-04T03:39:47;100253.00;;;5.95;100.00
45275;BME280;31019;43.780;25.948;2023-04-04T03:42:15;100249.50;;;4.55;100.00
45275;BME280;31019;43.780;25.948;2023-04-04T03:44:42;100276.25;;;4.81;100.00
45275;BME280;31019;43.780;25.948;2023-04-04T03:47:09;100263.72;;;5.13;100.00
45275;BME280;31019;43.780;25.948;2023-04-04T03:49:35;100249.31;;;5.09;100.00
45275;BME280;31019;43.780;25.948;2023-04-04T03:52:03;100250.16;;;5.76;100.00
45275;BME280;31019;43.780;25.948;2023-04-04T03:54:29;100265.81;;;5.03;100.00
45275;BME280;31019;43.780;25.948;2023-04-04T03:56:56;100258.03;;;5.24;100.00
45275;BME280;31019;43.780;25.948;2023-04-04T03:59:24;100253.94;;;6.52;100.00
45275;BME280;31019;43.780;25.948;2023-04-04T04:01:51;100261.66;;;5.74;100.00
45275;BME280;31019;43.780;25.948;2023-04-04T04:04:18;100253.56;;;4.95;100.00
45275;BME280;31019;43.780;25.948;2023-04-04T04:06:45;100260.56;;;5.33;100.00
45275;BME280;31019;43.780;25.948;2023-04-04T04:09:13;100249.78;;;6.15;100.00
45275;BME280;31019;43.780;25.948;2023-04-04T04:11:40;100252.81;;;5.46;100.00
45275;BME280;31019;43.780;25.948;2023-04-04T04:14:06;100258.31;;;5.30;100.00
45275;BME280;31019;43.780;25.948;2023-04-04T04:16:38;100244.88;;;6.61;100.00
45275;BME280;31019;43.780;25.948;2023-04-04T04:19:05;100249.00;;;4.74;100.00
45275;BME280;31019;43.780;25.948;2023-04-04T04:21:32;100254.06;;;7.28;100.00
45275;BME280;31019;43.780;25.948;2023-04-04T04:23:58;100243.72;;;5.63;100.00
45275;BME280;31019;43.780;25.948;2023-04-04T04:26:25;100242.44;;;6.88;100.00
45275;BME280;31019;43.780;25.948;2023-04-04T04:28:52;100261.63;;;4.79;100.00
45275;BME280;31019;43.780;25.948;2023-04-04T04:31:19;100239.59;;;5.76;100.00
45275;BME280;31019;43.780;25.948;2023-04-04T04:33:47;100243.91;;;4.73;100.00
45275;BME280;31019;43.780;25.948;2023-04-04T04:36:14;100235.22;;;5.17;100.00
45275;BME280;31019;43.780;25.948;2023-04-04T04:38:40;100248.28;;;5.10;100.00
45275;BME280;31019;43.780;25.948;2023-04-04T04:41:07;100254.34;;;4.81;100.00
45275;BME280;31019;43.780;25.948;2023-04-04T04:43:34;100259.81;;;6.26;100.00
45275;BME280;31019;43.780;25.948;2023-04-04T04:46:01;100265.38;;;6.16;100.00
45275;BME280;31019;43.780;25.948;2023-04-04T04:48:28;100287.38;;;4.00;100.00
45275;BME280;31019;43.780;25.948;2023-04-04T04:50:56;100280.03;;;4.18;100.00
45275;BME280;31019;43.780;25.948;2023-04-04T04:53:23;100279.00;;;3.96;100.00
45275;BME280;31019;43.780;25.948;2023-04-04T04:55:50;100279.47;;;5.87;100.00
45275;BME280;31019;43.780;25.948;2023-04-04T04:58:17;100283.97;;;3.91;100.00
45275;BME280;31019;43.780;25.948;2023-04-04T05:00:45;100291.66;;;4.85;100.00
45275;BME280;31019;43.780;25.948;2023-04-04T05:03:12;100308.38;;;4.31;100.00
45275;BME280;31019;43.780;25.948;2023-04-04T05:05:39;100308.03;;;5.10;100.00
45275;BME280;31019;43.780;25.948;2023-04-04T05:08:09;100296.53;;;4.73;100.00
45275;BME280;31019;43.780;25.948;2023-04-04T05:10:36;100290.91;;;4.15;100.00
45275;BME280;31019;43.780;25.948;2023-04-04T05:13:03;100294.66;;;4.21;100.00
45275;BME280;31019;43.780;25.948;2023-04-04T05:15:30;100303.97;;;5.37;100.00
45275;BME280;31019;43.780;25.948;2023-04-04T05:17:57;100290.75;;;5.81;100.00
45275;BME280;31019;43.780;25.948;2023-04-04T05:20:24;100312.00;;;6.31;100.00
45275;BME280;31019;43.780;25.948;2023-04-04T05:22:59;100316.13;;;5.53;100.00
45275;BME280;31019;43.780;25.948;2023-04-04T05:25:27;100323.94;;;4.32;100.00
45275;BME280;31019;43.780;25.948;2023-04-04T05:27:53;100315.28;;;4.01;100.00
45275;BME280;31019;43.780;25.948;2023-04-04T05:30:22;100326.38;;;3.80;100.00
45275;BME280;31019;43.780;25.948;2023-04-04T05:33:01;100320.75;;;4.22;100.00
45275;BME280;31019;43.780;25.948;2023-04-04T05:35:28;100320.09;;;3.58;100.00
45275;BME280;31019;43.780;25.948;2023-04-04T05:37:55;100336.06;;;4.42;100.00
45275;BME280;31019;43.780;25.948;2023-04-04T05:40:21;100337.47;;;5.87;100.00
45275;BME280;31019;43.780;25.948;2023-04-04T05:42:59;100338.75;;;4.56;100.00
45275;BME280;31019;43.780;25.948;2023-04-04T05:45:28;100339.75;;;7.19;100.00
45275;BME280;31019;43.780;25.948;2023-04-04T05:47:55;100327.41;;;4.79;100.00
45275;BME280;31019;43.780;25.948;2023-04-04T05:50:22;100340.50;;;4.64;100.00
45275;BME280;31019;43.780;25.948;2023-04-04T05:52:52;100350.72;;;5.35;100.00
45275;BME280;31019;43.780;25.948;2023-04-04T05:55:19;100333.28;;;4.66;100.00
45275;BME280;31019;43.780;25.948;2023-04-04T05:57:47;100339.75;;;5.76;100.00
45275;BME280;31019;43.780;25.948;2023-04-04T06:00:16;100333.19;;;5.12;100.00
45275;BME280;31019;43.780;25.948;2023-04-04T06:02:44;100337.53;;;7.23;100.00
45275;BME280;31019;43.780;25.948;2023-04-04T06:05:11;100335.38;;;5.09;100.00
45275;BME280;31019;43.780;25.948;2023-04-04T06:07:38;100319.19;;;4.36;100.00
45275;BME280;31019;43.780;25.948;2023-04-04T06:10:05;100321.69;;;6.45;100.00
45275;BME280;31019;43.780;25.948;2023-04-04T06:12:33;100323.28;;;5.29;100.00
45275;BME280;31019;43.780;25.948;2023-04-04T06:15:11;100316.66;;;5.03;100.00
45275;BME280;31019;43.780;25.948;2023-04-04T06:17:39;100310.75;;;6.27;100.00
45275;BME280;31019;43.780;25.948;2023-04-04T06:20:07;100312.94;;;4.60;100.00
45275;BME280;31019;43.780;25.948;2023-04-04T06:22:33;100311.06;;;6.38;100.00
45275;BME280;31019;43.780;25.948;2023-04-04T06:25:00;100309.34;;;4.53;100.00
45275;BME280;31019;43.780;25.948;2023-04-04T06:27:27;100325.16;;;4.30;100.00
45275;BME280;31019;43.780;25.948;2023-04-04T06:29:54;100318.63;;;3.86;100.00
45275;BME280;31019;43.780;25.948;2023-04-04T06:32:20;100327.19;;;5.03;100.00
45275;BME280;31019;43.780;25.948;2023-04-04T06:34:49;100325.94;;;5.29;100.00
45275;BME280;31019;43.780;25.948;2023-04-04T06:37:15;100318.22;;;5.27;100.00
45275;BME280;31019;43.780;25.948;2023-04-04T06:39:42;100320.84;;;4.06;100.00
45275;BME280;31019;43.780;25.948;2023-04-04T06:42:09;100321.31;;;4.09;100.00
45275;BME280;31019;43.780;25.948;2023-04-04T06:44:36;100310.72;;;3.55;100.00
45275;BME280;31019;43.780;25.948;2023-04-04T06:47:03;100307.13;;;5.02;100.00
45275;BME280;31019;43.780;25.948;2023-04-04T06:49:30;100295.31;;;5.72;100.00
45275;BME280;31019;43.780;25.948;2023-04-04T06:51:59;100306.59;;;4.23;100.00
45275;BME280;31019;43.780;25.948;2023-04-04T06:54:26;100308.94;;;5.32;100.00
45275;BME280;31019;43.780;25.948;2023-04-04T06:56:53;100309.69;;;4.73;100.00
45275;BME280;31019;43.780;25.948;2023-04-04T06:59:21;100299.88;;;5.34;100.00
45275;BME280;31019;43.780;25.948;2023-04-04T07:01:48;100303.50;;;3.97;100.00
45275;BME280;31019;43.780;25.948;2023-04-04T07:04:17;100304.03;;;5.28;100.00
45275;BME280;31019;43.780;25.948;2023-04-04T07:06:44;100297.25;;;6.15;100.00
45275;BME280;31019;43.780;25.948;2023-04-04T07:09:12;100290.59;;;5.53;100.00
45275;BME280;31019;43.780;25.948;2023-04-04T07:11:39;100283.69;;;5.08;100.00
45275;BME280;31019;43.780;25.948;2023-04-04T07:14:05;100281.34;;;5.42;100.00
45275;BME280;31019;43.780;25.948;2023-04-04T07:16:32;100279.13;;;4.87;100.00
45275;BME280;31019;43.780;25.948;2023-04-04T07:19:00;100285.72;;;5.05;100.00
45275;BME280;31019;43.780;25.948;2023-04-04T07:21:27;100301.50;;;4.45;100.00
45275;BME280;31019;43.780;25.948;2023-04-04T07:23:54;100290.19;;;4.21;100.00
45275;BME280;31019;43.780;25.948;2023-04-04T07:26:22;100288.25;;;4.15;100.00
45275;BME280;31019;43.780;25.948;2023-04-04T07:28:49;100288.19;;;4.69;100.00
45275;BME280;31019;43.780;25.948;2023-04-04T07:31:17;100293.69;;;6.08;100.00
45275;BME280;31019;43.780;25.948;2023-04-04T07:33:43;100297.28;;;4.81;100.00
45275;BME280;31019;43.780;25.948;2023-04-04T07:36:10;100280.53;;;3.90;100.00
45275;BME280;31019;43.780;25.948;2023-04-04T07:38:37;100306.34;;;4.79;100.00
45275;BME280;31019;43.780;25.948;2023-04-04T07:41:04;100302.16;;;4.01;100.00
45275;BME280;31019;43.780;25.948;2023-04-04T07:43:32;100304.03;;;3.84;100.00
45275;BME280;31019;43.780;25.948;2023-04-04T07:45:59;100299.09;;;3.89;100.00
45275;BME280;31019;43.780;25.948;2023-04-04T07:48:26;100305.94;;;5.05;100.00
45275;BME280;31019;43.780;25.948;2023-04-04T07:50:53;100303.19;;;3.92;100.00
45275;BME280;31019;43.780;25.948;2023-04-04T07:53:19;100304.53;;;3.87;100.00
45275;BME280;31019;43.780;25.948;2023-04-04T07:55:47;100308.56;;;3.59;100.00
45275;BME280;31019;43.780;25.948;2023-04-04T07:58:13;100313.00;;;3.98;100.00
45275;BME280;31019;43.780;25.948;2023-04-04T08:00:41;100308.56;;;3.98;100.00
45275;BME280;31019;43.780;25.948;2023-04-04T08:03:08;100309.09;;;4.63;100.00
45275;BME280;31019;43.780;25.948;2023-04-04T08:05:35;100306.72;;;4.07;100.00
45275;BME280;31019;43.780;25.948;2023-04-04T08:08:02;100321.59;;;5.36;100.00
45275;BME280;31019;43.780;25.948;2023-04-04T08:10:28;100317.78;;;3.55;100.00
45275;BME280;31019;43.780;25.948;2023-04-04T08:12:55;100318.63;;;3.47;100.00
45275;BME280;31019;43.780;25.948;2023-04-04T08:15:22;100300.19;;;6.05;100.00
45275;BME280;31019;43.780;25.948;2023-04-04T08:17:50;100310.28;;;4.37;100.00
45275;BME280;31019;43.780;25.948;2023-04-04T08:20:17;100301.47;;;4.91;100.00
45275;BME280;31019;43.780;25.948;2023-04-04T08:22:44;100307.06;;;5.40;100.00
45275;BME280;31019;43.780;25.948;2023-04-04T08:25:11;100280.16;;;3.62;100.00
45275;BME280;31019;43.780;25.948;2023-04-04T08:27:40;100294.94;;;4.49;100.00
45275;BME280;31019;43.780;25.948;2023-04-04T08:30:10;100285.97;;;5.55;100.00
45275;BME280;31019;43.780;25.948;2023-04-04T08:32:37;100277.19;;;5.33;100.00
45275;BME280;31019;43.780;25.948;2023-04-04T08:35:06;100282.72;;;4.33;100.00
45275;BME280;31019;43.780;25.948;2023-04-04T08:37:32;100289.91;;;4.16;100.00
45275;BME280;31019;43.780;25.948;2023-04-04T08:40:00;100289.72;;;4.41;100.00
45275;BME280;31019;43.780;25.948;2023-04-04T08:42:27;100287.00;;;4.72;100.00
45275;BME280;31019;43.780;25.948;2023-04-04T08:44:56;100289.78;;;4.93;100.00
45275;BME280;31019;43.780;25.948;2023-04-04T08:47:25;100282.69;;;5.38;100.00
45275;BME280;31019;43.780;25.948;2023-04-04T08:49:53;100273.00;;;4.10;100.00
45275;BME280;31019;43.780;25.948;2023-04-04T08:52:22;100280.97;;;5.75;100.00
45275;BME280;31019;43.780;25.948;2023-04-04T08:54:52;100278.94;;;4.50;100.00
45275;BME280;31019;43.780;25.948;2023-04-04T08:57:19;100274.91;;;5.00;100.00
45275;BME280;31019;43.780;25.948;2023-04-04T08:59:46;100276.13;;;4.37;100.00
45275;BME280;31019;43.780;25.948;2023-04-04T09:02:28;100278.72;;;5.13;100.00
45275;BME280;31019;43.780;25.948;2023-04-04T09:04:59;100282.78;;;4.63;100.00
45275;BME280;31019;43.780;25.948;2023-04-04T09:07:28;100295.03;;;4.93;100.00
45275;BME280;31019;43.780;25.948;2023-04-04T09:09:56;100299.13;;;4.35;100.00
45275;BME280;31019;43.780;25.948;2023-04-04T09:12:24;100283.53;;;3.79;100.00
45275;BME280;31019;43.780;25.948;2023-04-04T09:14:52;100288.13;;;5.81;100.00
45275;BME280;31019;43.780;25.948;2023-04-04T09:17:21;100283.03;;;6.16;100.00
45275;BME280;31019;43.780;25.948;2023-04-04T09:19:48;100288.44;;;5.42;100.00
45275;BME280;31019;43.780;25.948;2023-04-04T09:22:15;100273.16;;;5.22;100.00
45275;BME280;31019;43.780;25.948;2023-04-04T09:24:43;100281.31;;;4.22;100.00
45275;BME280;31019;43.780;25.948;2023-04-04T09:27:11;100289.22;;;4.98;100.00
45275;BME280;31019;43.780;25.948;2023-04-04T09:29:38;100272.34;;;4.08;100.00
45275;BME280;31019;43.780;25.948;2023-04-04T09:32:07;100272.78;;;5.55;100.00
45275;BME280;31019;43.780;25.948;2023-04-04T09:34:34;100281.66;;;3.57;100.00
45275;BME280;31019;43.780;25.948;2023-04-04T09:37:02;100296.56;;;4.27;100.00
45275;BME280;31019;43.780;25.948;2023-04-04T09:39:30;100293.25;;;4.02;100.00
45275;BME280;31019;43.780;25.948;2023-04-04T09:42:00;100286.63;;;4.60;100.00
45275;BME280;31019;43.780;25.948;2023-04-04T09:44:27;100305.53;;;4.32;100.00
45275;BME280;31019;43.780;25.948;2023-04-04T09:49:46;100291.31;;;5.47;100.00
45275;BME280;31019;43.780;25.948;2023-04-04T09:52:17;100300.72;;;4.21;100.00
45275;BME280;31019;43.780;25.948;2023-04-04T09:54:44;100304.34;;;4.66;100.00
45275;BME280;31019;43.780;25.948;2023-04-04T09:57:12;100302.97;;;4.01;100.00
45275;BME280;31019;43.780;25.948;2023-04-04T09:59:38;100294.84;;;3.49;100.00
45275;BME280;31019;43.780;25.948;2023-04-04T10:02:08;100290.06;;;3.52;100.00
45275;BME280;31019;43.780;25.948;2023-04-04T10:04:36;100290.16;;;3.67;100.00
45275;BME280;31019;43.780;25.948;2023-04-04T10:07:03;100292.41;;;5.23;100.00
45275;BME280;31019;43.780;25.948;2023-04-04T10:09:30;100294.31;;;4.39;100.00
45275;BME280;31019;43.780;25.948;2023-04-04T10:12:07;100294.50;;;4.98;100.00
45275;BME280;31019;43.780;25.948;2023-04-04T10:14:36;100291.75;;;3.76;100.00
45275;BME280;31019;43.780;25.948;2023-04-04T10:17:07;100292.97;;;4.66;100.00
45275;BME280;31019;43.780;25.948;2023-04-04T10:19:35;100296.59;;;4.42;100.00
45275;BME280;31019;43.780;25.948;2023-04-04T10:22:03;100286.03;;;4.50;100.00
45275;BME280;31019;43.780;25.948;2023-04-04T10:24:30;100291.56;;;3.86;100.00
45275;BME280;31019;43.780;25.948;2023-04-04T10:26:57;100305.25;;;4.50;100.00
45275;BME280;31019;43.780;25.948;2023-04-04T10:29:24;100298.72;;;4.23;100.00
45275;BME280;31019;43.780;25.948;2023-04-04T10:31:58;100304.13;;;3.67;100.00
45275;BME280;31019;43.780;25.948;2023-04-04T10:34:31;100312.06;;;3.51;100.00
45275;BME280;31019;43.780;25.948;2023-04-04T10:37:06;100313.28;;;4.95;100.00
45275;BME280;31019;43.780;25.948;2023-04-04T10:39:36;100308.44;;;3.92;100.00
45275;BME280;31019;43.780;25.948;2023-04-04T10:42:04;100313.50;;;5.38;100.00
45275;BME280;31019;43.780;25.948;2023-04-04T10:44:32;100301.75;;;4.12;100.00
45275;BME280;31019;43.780;25.948;2023-04-04T10:47:07;100302.06;;;5.31;100.00
45275;BME280;31019;43.780;25.948;2023-04-04T10:49:36;100296.66;;;3.87;100.00
45275;BME280;31019;43.780;25.948;2023-04-04T10:52:03;100311.22;;;5.20;100.00
45275;BME280;31019;43.780;25.948;2023-04-04T10:54:30;100306.47;;;4.63;100.00
45275;BME280;31019;43.780;25.948;2023-04-04T10:56:58;100309.94;;;4.40;100.00
45275;BME280;31019;43.780;25.948;2023-04-04T10:59:26;100305.56;;;3.78;100.00
45275;BME280;31019;43.780;25.948;2023-04-04T11:01:57;100308.72;;;4.89;100.00
45275;BME280;31019;43.780;25.948;2023-04-04T11:04:36;100318.13;;;5.21;100.00
45275;BME280;31019;43.780;25.948;2023-04-04T11:07:15;100316.84;;;5.17;100.00
45275;BME280;31019;43.780;25.948;2023-04-04T11:09:52;100323.13;;;4.09;100.00
45275;BME280;31019;43.780;25.948;2023-04-04T11:12:20;100337.09;;;3.78;100.00
45275;BME280;31019;43.780;25.948;2023-04-04T11:15:11;100342.53;;;4.31;100.00
45275;BME280;31019;43.780;25.948;2023-04-04T11:18:04;100347.53;;;3.86;100.00
45275;BME280;31019;43.780;25.948;2023-04-04T11:20:35;100350.16;;;3.86;100.00
45275;BME280;31019;43.780;25.948;2023-04-04T11:23:08;100344.66;;;4.04;100.00
45275;BME280;31019;43.780;25.948;2023-04-04T11:25:40;100347.69;;;4.47;100.00
45275;BME280;31019;43.780;25.948;2023-04-04T11:28:14;100355.91;;;4.21;100.00
45275;BME280;31019;43.780;25.948;2023-04-04T11:31:23;100351.28;;;4.54;100.00
45275;BME280;31019;43.780;25.948;2023-04-04T11:33:54;100354.59;;;4.71;100.00
45275;BME280;31019;43.780;25.948;2023-04-04T11:36:49;100355.31;;;3.72;100.00
45275;BME280;31019;43.780;25.948;2023-04-04T11:39:22;100355.84;;;3.67;100.00
45275;BME280;31019;43.780;25.948;2023-04-04T11:41:53;100356.81;;;4.36;100.00
45275;BME280;31019;43.780;25.948;2023-04-04T11:44:20;100365.94;;;3.86;100.00
45275;BME280;31019;43.780;25.948;2023-04-04T11:46:48;100365.75;;;4.27;100.00
45275;BME280;31019;43.780;25.948;2023-04-04T11:49:24;100365.38;;;3.99;100.00
45275;BME280;31019;43.780;25.948;2023-04-04T11:51:57;100366.84;;;4.02;100.00
45275;BME280;31019;43.780;25.948;2023-04-04T11:54:24;100368.31;;;4.04;100.00
45275;BME280;31019;43.780;25.948;2023-04-04T11:56:51;100359.59;;;4.12;100.00
45275;BME280;31019;43.780;25.948;2023-04-04T11:59:20;100364.78;;;3.89;100.00
45275;BME280;31019;43.780;25.948;2023-04-04T12:01:51;100364.97;;;3.79;100.00
45275;BME280;31019;43.780;25.948;2023-04-04T12:04:18;100363.50;;;3.85;100.00
45275;BME280;31019;43.780;25.948;2023-04-04T12:06:49;100367.56;;;4.27;100.00
45275;BME280;31019;43.780;25.948;2023-04-04T12:09:18;100362.03;;;4.13;100.00
45275;BME280;31019;43.780;25.948;2023-04-04T12:11:48;100361.66;;;3.94;100.00
45275;BME280;31019;43.780;25.948;2023-04-04T12:14:16;100359.03;;;3.94;100.00
45275;BME280;31019;43.780;25.948;2023-04-04T12:16:43;100365.09;;;3.94;100.00
45275;BME280;31019;43.780;25.948;2023-04-04T12:19:10;100359.31;;;4.53;100.00
45275;BME280;31019;43.780;25.948;2023-04-04T12:21:37;100354.03;;;4.07;100.00
45275;BME280;31019;43.780;25.948;2023-04-04T12:24:05;100362.13;;;3.97;100.00
45275;BME280;31019;43.780;25.948;2023-04-04T12:26:35;100356.94;;;4.43;100.00
45275;BME280;31019;43.780;25.948;2023-04-04T12:29:02;100344.78;;;4.42;100.00
45275;BME280;31019;43.780;25.948;2023-04-04T12:31:30;100344.09;;;4.17;100.00
45275;BME280;31019;43.780;25.948;2023-04-04T12:33:58;100344.69;;;4.50;100.00
45275;BME280;31019;43.780;25.948;2023-04-04T12:36:25;100331.97;;;4.62;100.00
45275;BME280;31019;43.780;25.948;2023-04-04T12:38:57;100346.69;;;4.94;100.00
45275;BME280;31019;43.780;25.948;2023-04-04T12:41:25;100336.66;;;5.72;100.00
45275;BME280;31019;43.780;25.948;2023-04-04T12:43:59;100340.44;;;4.49;100.00
45275;BME280;31019;43.780;25.948;2023-04-04T12:46:27;100328.66;;;4.14;100.00
45275;BME280;31019;43.780;25.948;2023-04-04T12:48:54;100328.91;;;4.04;100.00